チュニス の空港の天気 - METARとTAF

チュニス・カルタゴ国際空港 ( DTTA / TUN ) - チュニジア チュニス
飛行場実況気象(Metar)
観測時間08/25 20:00 CET (08/25 19:00 UTC)
風向・風速南南東 1m/s
視程10km以上
天気現象
なし
気温27℃
湿度70%
気圧1015hPa
METARDTTA 251900Z 16002KT CAVOK 27/21 Q1015
過去の天気等 Google飛行場航空写真 Wunderground天気予報

過去48時間のMETAR

飛行場予報(TAF)
発表時間: 8/25 18:00 CET (8/25 17:00 UTC)
予報対象時間: 25日19時 CET ~ 26日19時 CET
風向・風速東北東 3m/s
視程10km以上
全天の4割程度の雲 雲底高度 910m
25日23時 CET ~ 26日5時 CET に 確率 30% で一時的に
天気現象弱い雷雨
全天の4割程度の塔状積雲 雲底高度 910m
少しの積乱雲 雲底高度 1010m
26日14時 CET ~ 26日16時 CET に徐々に
風向・風速北東 6m/s
26日14時 CET ~ 26日19時 CET に 確率 30% で一時的に
天気現象弱い雷雨
少しの積乱雲 雲底高度 910m
TAF DTTA 251700Z 2518/2618 06006KT 9999 SCT030
PROB30 TEMPO 2522/2604 -TSRA SCT030TCU FEW033CB
BECMG 2613/2615 05012KT
PROB30 TEMPO 2613/2618 -TSRA FEW030CB